createdAt,value
2023-02-12T00:01:24.515Z,4.60
2023-02-12T00:03:52.361Z,1.80
2023-02-12T00:06:20.641Z,1.40
2023-02-12T00:08:54.261Z,1.40
2023-02-12T00:11:25.183Z,1.40
2023-02-12T00:13:53.910Z,1.00
2023-02-12T00:16:24.603Z,1.40
2023-02-12T00:18:54.115Z,1.20
2023-02-12T00:21:22.677Z,1.30
2023-02-12T00:23:50.760Z,0.90
2023-02-12T00:26:23.131Z,1.60
2023-02-12T00:28:51.510Z,0.70
2023-02-12T00:31:22.160Z,1.60
2023-02-12T00:33:50.759Z,1.30
2023-02-12T00:36:21.461Z,1.00
2023-02-12T00:38:51.966Z,1.10
2023-02-12T00:41:20.189Z,1.10
2023-02-12T00:43:48.906Z,2.40
2023-02-12T00:46:17.238Z,1.30
2023-02-12T00:48:45.002Z,1.30
2023-02-12T00:51:13.161Z,1.50
2023-02-12T00:53:40.970Z,1.40
2023-02-12T00:56:08.746Z,1.60
2023-02-12T00:58:36.507Z,1.70
2023-02-12T07:01:26.742Z,2.70
2023-02-12T07:03:57.336Z,3.00
2023-02-12T07:06:26.743Z,2.70
2023-02-12T07:08:55.705Z,2.90
2023-02-12T07:11:28.653Z,2.70
2023-02-12T07:13:56.531Z,2.70
2023-02-12T07:16:24.845Z,2.00
2023-02-12T07:18:52.609Z,1.80
2023-02-12T07:21:21.065Z,2.60
2023-02-12T07:23:51.584Z,3.10
2023-02-12T07:26:21.319Z,2.70
2023-02-12T07:28:50.554Z,2.50
2023-02-12T07:31:23.001Z,2.40
2023-02-12T07:33:55.994Z,2.10
2023-02-12T07:36:24.942Z,2.00
2023-02-12T07:38:54.350Z,1.90
2023-02-12T07:41:25.132Z,1.80
2023-02-12T07:44:01.528Z,1.80
2023-02-12T07:46:37.737Z,1.70
2023-02-12T07:49:07.259Z,1.50
2023-02-12T07:51:37.070Z,1.40
2023-02-12T07:54:05.301Z,2.10
2023-02-12T07:56:36.254Z,1.50
2023-02-12T07:59:06.685Z,1.50
2023-02-12T08:01:37.363Z,2.10
2023-02-12T08:04:10.555Z,1.90
2023-02-12T08:06:41.253Z,2.00
2023-02-12T08:09:12.724Z,1.90
2023-02-12T08:14:12.080Z,2.20
2023-02-12T08:16:41.275Z,1.90
2023-02-12T08:19:18.704Z,1.50
2023-02-12T08:21:53.892Z,2.20
2023-02-12T08:24:24.620Z,1.90
2023-02-12T08:26:52.594Z,1.80
2023-02-12T08:29:24.474Z,1.90
2023-02-12T08:32:00.127Z,2.00
2023-02-12T08:34:31.091Z,1.80
2023-02-12T08:36:59.797Z,2.10
2023-02-12T08:39:30.450Z,2.50
2023-02-12T08:41:59.511Z,2.10
2023-02-12T08:44:28.134Z,2.20
2023-02-12T08:46:56.255Z,2.10
2023-02-12T08:49:27.093Z,2.30
2023-02-12T08:51:56.633Z,2.20
2023-02-12T08:54:26.437Z,2.10
2023-02-12T08:57:00.102Z,2.50
2023-02-12T08:59:28.676Z,2.40
2023-02-12T09:01:56.941Z,2.30
2023-02-12T09:04:27.104Z,2.90
2023-02-12T09:06:55.613Z,2.60
2023-02-12T09:09:23.421Z,2.10
2023-02-12T09:11:54.295Z,2.00
2023-02-12T09:14:35.991Z,2.10
2023-02-12T09:17:07.114Z,2.40
2023-02-12T09:19:36.607Z,2.50
2023-02-12T09:22:04.817Z,2.30
2023-02-12T09:24:33.255Z,1.70
2023-02-12T09:27:01.372Z,2.00
2023-02-12T09:29:29.193Z,2.30
2023-02-12T09:31:57.366Z,2.20
2023-02-12T09:34:25.219Z,2.40
2023-02-12T09:36:52.949Z,2.60
2023-02-12T09:39:20.704Z,2.50
2023-02-12T09:42:02.869Z,3.20
2023-02-12T09:44:42.536Z,3.20
2023-02-12T09:47:15.950Z,2.50
2023-02-12T09:49:57.201Z,2.20
2023-02-12T09:52:28.191Z,2.60
2023-02-12T09:54:56.959Z,2.20
2023-02-12T09:57:24.666Z,2.50
2023-02-12T10:00:01.949Z,2.80
2023-02-12T10:02:29.845Z,3.60
2023-02-12T10:05:01.848Z,2.30
2023-02-12T10:07:48.488Z,2.30
2023-02-12T10:10:35.601Z,2.70
2023-02-12T10:13:19.040Z,2.60
2023-02-12T10:15:58.802Z,2.00
2023-02-12T10:18:41.844Z,2.60
2023-02-12T10:21:24.818Z,1.70
2023-02-12T10:23:59.764Z,2.20
2023-02-12T10:26:35.929Z,2.40
2023-02-12T10:29:17.658Z,2.40
2023-02-12T10:31:51.483Z,2.80
2023-02-12T10:34:23.864Z,2.60
2023-02-12T10:36:56.238Z,2.30
2023-02-12T10:39:32.924Z,2.20
2023-02-12T10:42:22.078Z,2.60
2023-02-12T10:44:49.840Z,2.10
2023-02-12T10:47:23.769Z,2.10
2023-02-12T10:50:33.333Z,1.90
2023-02-12T10:53:03.620Z,2.10
2023-02-12T10:55:34.901Z,2.70
2023-02-12T10:58:05.155Z,2.20
2023-02-12T11:00:36.824Z,2.40
2023-02-12T11:03:13.787Z,3.20
2023-02-12T11:05:43.826Z,2.20
2023-02-12T11:08:34.245Z,2.50
2023-02-12T11:11:11.764Z,2.80
2023-02-12T11:13:44.313Z,2.40
2023-02-12T11:16:13.229Z,2.30
2023-02-12T11:18:42.100Z,3.30
2023-02-12T11:21:12.401Z,3.10
2023-02-12T11:23:42.914Z,2.90
2023-02-12T11:26:19.683Z,2.80
2023-02-12T11:29:01.213Z,2.10
2023-02-12T11:31:31.861Z,3.60
2023-02-12T11:34:16.491Z,3.50
2023-02-12T11:36:54.554Z,2.50
2023-02-12T11:39:29.232Z,3.70
2023-02-12T11:42:04.979Z,3.10
2023-02-12T11:44:37.159Z,3.00
2023-02-12T11:47:12.218Z,3.40
2023-02-12T11:49:48.662Z,2.20
2023-02-12T11:52:23.129Z,3.90
2023-02-12T11:54:55.490Z,4.50
2023-02-12T11:57:38.539Z,3.00
2023-02-12T12:00:15.516Z,2.80
2023-02-12T12:02:50.790Z,3.30
2023-02-12T12:05:21.198Z,4.20
2023-02-12T12:07:58.657Z,4.40
2023-02-12T12:10:36.474Z,3.10
2023-02-12T12:16:06.078Z,3.70
2023-02-12T12:19:10.629Z,3.90
2023-02-12T12:22:02.735Z,3.90
2023-02-12T12:24:48.225Z,3.10
2023-02-12T12:27:43.685Z,3.70
2023-02-12T12:30:25.123Z,2.80
2023-02-12T12:32:56.332Z,2.90
2023-02-12T12:35:50.037Z,3.00
2023-02-12T12:38:29.965Z,3.20
2023-02-12T12:41:29.969Z,3.70
2023-02-12T12:44:10.396Z,3.20
2023-02-12T12:46:40.813Z,5.20
2023-02-12T12:49:14.405Z,3.90
2023-02-12T12:52:03.175Z,3.70
2023-02-12T12:55:20.290Z,4.90
2023-02-12T12:58:01.093Z,3.80
2023-02-12T13:00:37.781Z,4.40
2023-02-12T13:03:28.713Z,4.20
2023-02-12T13:06:26.966Z,3.40
2023-02-12T13:09:00.780Z,4.80
2023-02-12T13:11:52.185Z,4.30
2023-02-12T13:14:28.945Z,3.50
2023-02-12T13:17:11.700Z,4.50
2023-02-12T13:20:13.237Z,4.30
2023-02-12T13:22:52.699Z,4.00
2023-02-12T13:25:48.672Z,3.80
2023-02-12T13:28:29.175Z,4.10
2023-02-12T13:30:58.082Z,3.80
2023-02-12T13:33:33.908Z,3.30
2023-02-12T13:36:06.330Z,4.30
2023-02-12T13:38:56.325Z,3.90
2023-02-12T13:41:25.425Z,3.40
2023-02-12T13:44:06.476Z,3.40
2023-02-12T13:46:34.084Z,3.60
2023-02-12T13:49:17.164Z,4.20
2023-02-12T13:51:53.564Z,3.20
2023-02-12T13:54:33.283Z,3.70
2023-02-12T13:57:03.539Z,2.90
2023-02-12T13:59:36.914Z,3.40
2023-02-12T14:02:25.691Z,3.00
2023-02-12T14:04:53.406Z,3.80
2023-02-12T14:07:22.474Z,3.20
2023-02-12T14:09:50.098Z,3.30
2023-02-12T14:12:26.555Z,4.00
2023-02-12T14:15:04.005Z,3.60
2023-02-12T14:17:31.970Z,3.10
2023-02-12T14:20:05.880Z,3.60
2023-02-12T14:22:33.509Z,4.10
2023-02-12T14:25:22.762Z,4.10
2023-02-12T14:27:53.584Z,4.10
2023-02-12T14:30:39.183Z,5.00
2023-02-12T14:33:08.039Z,4.20
2023-02-12T14:35:44.016Z,4.00
2023-02-12T14:38:11.660Z,5.10
2023-02-12T14:40:50.253Z,4.70
2023-02-12T14:43:29.150Z,5.20
2023-02-12T14:46:16.867Z,5.10
2023-02-12T14:48:50.958Z,5.70
2023-02-12T14:51:35.976Z,5.20
2023-02-12T14:54:13.753Z,5.80
2023-02-12T14:59:19.693Z,5.10
2023-02-12T15:01:49.037Z,6.20
2023-02-12T15:04:24.249Z,6.50
2023-02-12T15:07:08.332Z,5.20
2023-02-12T15:12:32.769Z,6.10
2023-02-12T15:15:12.896Z,5.10
2023-02-12T15:17:48.446Z,6.30
2023-02-12T15:20:33.667Z,7.90
2023-02-12T15:23:03.491Z,5.50
2023-02-12T15:25:33.127Z,5.00
2023-02-12T15:28:05.016Z,7.80
2023-02-12T15:30:35.899Z,5.80
2023-02-12T15:33:06.960Z,7.10
2023-02-12T15:35:39.811Z,7.00
2023-02-12T15:38:08.185Z,6.00
2023-02-12T15:40:35.990Z,8.30
2023-02-12T15:43:06.077Z,6.70
2023-02-12T15:45:36.194Z,6.60
2023-02-12T15:48:09.987Z,7.20
2023-02-12T15:51:00.951Z,7.60
2023-02-12T15:53:30.863Z,7.80
2023-02-12T15:56:00.289Z,7.60
2023-02-12T15:58:31.430Z,7.50
2023-02-12T16:01:05.611Z,7.10
2023-02-12T16:03:37.157Z,8.00
2023-02-12T16:06:11.693Z,7.10
2023-02-12T16:08:46.288Z,7.50
2023-02-12T16:11:20.003Z,7.60
2023-02-12T16:14:00.574Z,7.10
2023-02-12T16:16:44.408Z,6.70
2023-02-12T16:19:27.017Z,7.60
2023-02-12T16:22:01.349Z,6.80
2023-02-12T16:24:33.776Z,6.80
2023-02-12T16:27:17.059Z,7.40
2023-02-12T16:29:55.163Z,6.70
2023-02-12T16:32:41.674Z,7.80
2023-02-12T16:35:12.576Z,6.40
2023-02-12T16:37:49.544Z,7.30
2023-02-12T16:40:17.292Z,6.20
2023-02-12T16:42:48.187Z,7.20
2023-02-12T16:45:26.552Z,6.60
2023-02-12T16:47:59.402Z,7.20
2023-02-12T16:50:34.133Z,8.10
2023-02-12T16:53:08.278Z,7.30
2023-02-12T16:55:36.879Z,8.60
2023-02-12T16:58:04.676Z,8.70
2023-02-12T17:00:32.470Z,9.30
2023-02-12T17:03:00.387Z,8.10
2023-02-12T17:05:28.191Z,8.50
2023-02-12T17:07:56.018Z,10.40
2023-02-12T17:10:23.846Z,10.90
2023-02-12T17:12:54.560Z,11.60
2023-02-12T17:15:30.362Z,9.80
2023-02-12T17:17:58.849Z,11.60
2023-02-12T17:20:26.832Z,10.80
2023-02-12T17:22:57.858Z,11.60
2023-02-12T17:25:25.794Z,14.80
2023-02-12T17:27:53.886Z,10.80
2023-02-12T17:30:22.187Z,14.00
2023-02-12T17:32:51.466Z,15.50
2023-02-12T17:35:19.389Z,13.90
2023-02-12T17:37:49.697Z,14.80
2023-02-12T17:40:18.732Z,16.40
2023-02-12T17:42:46.563Z,16.60
2023-02-12T17:45:14.995Z,13.40
2023-02-12T17:47:43.367Z,15.50
2023-02-12T17:50:14.539Z,13.30
2023-02-12T17:52:42.677Z,13.80
2023-02-12T17:55:12.003Z,12.70
2023-02-12T17:57:40.210Z,9.30
2023-02-12T18:00:10.348Z,11.70
2023-02-12T18:02:39.167Z,9.30
2023-02-12T18:05:07.966Z,9.30
2023-02-12T18:07:37.727Z,10.60
2023-02-12T18:10:11.529Z,12.30
2023-02-12T18:12:40.073Z,11.10
2023-02-12T18:15:09.732Z,10.40
2023-02-12T18:17:40.898Z,10.50
2023-02-12T18:20:11.542Z,13.00
2023-02-12T18:22:41.965Z,15.40
2023-02-12T18:25:09.982Z,13.40
2023-02-12T18:27:39.549Z,10.00
2023-02-12T18:30:08.965Z,14.50
2023-02-12T18:32:37.049Z,10.00
2023-02-12T18:35:06.523Z,8.60
2023-02-12T18:37:36.327Z,12.40
2023-02-12T18:40:04.362Z,10.20
2023-02-12T18:42:33.518Z,10.90
2023-02-12T18:45:01.489Z,10.70
2023-02-12T18:47:29.226Z,13.20
2023-02-12T18:49:58.154Z,8.70
2023-02-12T18:52:25.874Z,10.80
2023-02-12T18:54:53.651Z,10.90
2023-02-12T18:57:21.333Z,10.70
2023-02-12T18:59:49.027Z,9.40
2023-02-12T19:02:16.830Z,10.00
2023-02-12T19:04:44.645Z,10.40
2023-02-12T19:07:12.349Z,10.10
2023-02-12T19:09:40.065Z,10.70
2023-02-12T19:12:07.925Z,10.70
2023-02-12T19:14:35.978Z,11.70
2023-02-12T19:17:03.649Z,11.60
2023-02-12T19:19:31.366Z,9.60
2023-02-12T19:21:59.095Z,8.50
2023-02-12T19:24:37.663Z,11.00
2023-02-12T19:27:12.383Z,11.30
2023-02-12T19:29:40.048Z,12.20
2023-02-12T19:32:07.860Z,19.80
2023-02-12T19:34:35.886Z,15.00
2023-02-12T19:37:03.531Z,12.40
2023-02-12T19:39:31.276Z,11.70
2023-02-12T19:41:59.011Z,12.10
2023-02-12T19:44:26.965Z,11.00
2023-02-12T19:46:55.210Z,9.90
2023-02-12T19:49:25.888Z,9.00
2023-02-12T19:51:53.806Z,9.70
2023-02-12T19:54:23.517Z,11.50
2023-02-12T19:56:52.945Z,11.10
2023-02-12T19:59:22.321Z,10.10
2023-02-12T20:01:50.204Z,9.60
2023-02-12T20:04:22.556Z,12.30
2023-02-12T20:06:53.888Z,12.50
2023-02-12T20:09:22.618Z,11.40
2023-02-12T20:11:50.968Z,12.40
2023-02-12T20:14:20.994Z,12.40
2023-02-12T20:16:50.112Z,14.60
2023-02-12T20:19:38.017Z,11.50
2023-02-12T20:22:05.696Z,12.90
2023-02-12T20:24:34.361Z,10.10
2023-02-12T20:27:03.459Z,14.60
2023-02-12T20:29:31.445Z,12.80
2023-02-12T20:31:59.360Z,11.70
2023-02-12T20:34:27.211Z,12.20
2023-02-12T20:36:54.914Z,15.30
2023-02-12T20:39:23.142Z,14.70
2023-02-12T20:41:51.063Z,14.10
2023-02-12T20:44:21.583Z,12.00
2023-02-12T20:46:55.626Z,14.70
2023-02-12T20:49:25.262Z,15.10
2023-02-12T20:51:53.155Z,15.60
2023-02-12T20:54:21.058Z,15.10
2023-02-12T20:56:50.638Z,16.50
2023-02-12T20:59:20.269Z,18.10
2023-02-12T21:01:48.165Z,14.00
2023-02-12T21:04:18.056Z,17.00
2023-02-12T21:06:47.393Z,15.80
2023-02-12T21:09:15.799Z,16.60
2023-02-12T21:11:45.606Z,17.20
2023-02-12T21:14:23.977Z,16.10
2023-02-12T21:16:54.553Z,15.50
2023-02-12T21:19:22.434Z,14.50
2023-02-12T21:21:50.343Z,16.80
2023-02-12T21:24:21.840Z,15.10
2023-02-12T21:26:51.055Z,16.10
2023-02-12T21:29:20.006Z,14.80
2023-02-12T21:31:50.191Z,15.10
2023-02-12T21:34:21.704Z,16.00
2023-02-12T21:36:50.678Z,15.50
2023-02-12T21:39:25.134Z,15.30
2023-02-12T21:42:00.200Z,15.00
2023-02-12T21:44:29.645Z,15.30
2023-02-12T21:46:57.826Z,15.60
2023-02-12T21:49:27.589Z,13.30
2023-02-12T21:52:02.251Z,12.90
2023-02-12T21:54:31.148Z,13.80
2023-02-12T21:56:59.531Z,15.70
2023-02-12T21:59:30.145Z,14.10
2023-02-12T22:02:00.770Z,13.00
2023-02-12T22:04:29.098Z,16.30
2023-02-12T22:06:58.251Z,14.40
2023-02-12T22:09:26.231Z,14.70
2023-02-12T22:11:54.167Z,13.00
2023-02-12T22:14:22.543Z,14.20
2023-02-12T22:16:51.316Z,15.80
2023-02-12T22:19:19.446Z,12.40
2023-02-12T22:21:51.512Z,14.50
2023-02-12T22:24:20.406Z,12.50
2023-02-12T22:26:48.594Z,16.60
2023-02-12T22:29:16.934Z,12.30
2023-02-12T22:31:46.797Z,14.10
2023-02-12T22:34:17.740Z,11.20
2023-02-12T22:36:46.155Z,10.10
2023-02-12T22:39:14.762Z,9.80
2023-02-12T22:41:42.752Z,10.40
2023-02-12T22:44:12.659Z,10.40
2023-02-12T22:46:41.977Z,13.60
2023-02-12T22:49:10.476Z,9.30
2023-02-12T22:51:39.808Z,10.10
2023-02-12T22:54:13.916Z,10.80
2023-02-12T22:56:42.121Z,9.20
2023-02-12T22:59:11.163Z,9.70
2023-02-12T23:01:39.845Z,9.10
2023-02-12T23:04:08.069Z,8.60
2023-02-12T23:06:35.833Z,11.20
2023-02-12T23:09:04.905Z,9.90
2023-02-12T23:11:33.804Z,9.40
2023-02-12T23:14:01.519Z,8.80
2023-02-12T23:16:29.466Z,11.60
2023-02-12T23:19:01.680Z,8.70
2023-02-12T23:21:31.237Z,9.00
2023-02-12T23:23:59.675Z,9.00
2023-02-12T23:26:29.089Z,9.20
2023-02-12T23:28:57.975Z,7.70
2023-02-12T23:31:25.925Z,9.40
2023-02-12T23:33:53.764Z,8.60
2023-02-12T23:36:21.494Z,9.00
2023-02-12T23:38:49.169Z,9.40
2023-02-12T23:41:16.863Z,8.20
2023-02-12T23:43:44.520Z,7.20
2023-02-12T23:46:12.322Z,8.10
2023-02-12T23:48:40.154Z,10.10
2023-02-12T23:51:07.852Z,9.90
2023-02-12T23:53:35.508Z,8.60
2023-02-12T23:56:03.245Z,8.60
2023-02-12T23:58:30.994Z,8.50
